Time;durP1;ratioP1;P1;durP2;ratioP2;P2;SDS_P1;SDS_P2;PMS_P1;PMS_P2;Temp;Humidity;BMP_temperature;BMP_pressure;BME280_temperature;BME280_humidity;BME280_pressure;Samples;Min_cycle;Max_cycle;Signal;HPM_P1;HPM_P2
2023/04/12 00:00:51;;;;;;;8.82;2.38;;;;;;;1.76;100.00;100611.41;4918364;29;20064;-74
2023/04/12 00:03:19;;;;;;;5.90;1.92;;;;;;;1.76;100.00;100611.41;4937378;29;20055;-73
2023/04/12 00:05:53;;;;;;;5.65;2.05;;;;;;;1.78;100.00;100612.97;4929541;29;20036;-74
2023/04/12 00:08:23;;;;;;;13.48;2.55;;;;;;;1.67;100.00;100608.44;4935051;29;20071;-74
2023/04/12 00:10:50;;;;;;;8.02;2.35;;;;;;;1.54;100.00;100606.75;4938313;29;20068;-74
2023/04/12 00:13:18;;;;;;;7.45;2.72;;;;;;;1.62;100.00;100599.16;4938289;29;20416;-74
2023/04/12 00:15:45;;;;;;;6.60;2.50;;;;;;;1.69;100.00;100600.41;4934919;29;20060;-74
2023/04/12 00:18:12;;;;;;;6.15;2.35;;;;;;;1.61;100.00;100603.59;4936731;29;20032;-74
2023/04/12 00:20:40;;;;;;;6.15;2.22;;;;;;;1.65;100.00;100598.94;4937461;29;20108;-74
2023/04/12 00:23:08;;;;;;;8.45;2.45;;;;;;;1.58;100.00;100601.16;4938732;29;20031;-74
2023/04/12 00:25:37;;;;;;;7.50;2.28;;;;;;;1.56;100.00;100599.56;4905742;29;20059;-74
2023/04/12 00:28:05;;;;;;;7.80;2.40;;;;;;;1.52;100.00;100598.94;4934845;29;20074;-74
2023/04/12 00:30:33;;;;;;;5.07;2.30;;;;;;;1.54;100.00;100596.16;4936845;29;20112;-74
2023/04/12 00:32:59;;;;;;;6.40;2.28;;;;;;;1.57;100.00;100590.66;4940278;29;20071;-72
2023/04/12 00:35:26;;;;;;;3.85;2.30;;;;;;;1.59;100.00;100594.91;4937897;29;20036;-73
2023/04/12 00:37:53;;;;;;;9.93;3.22;;;;;;;1.48;100.00;100592.16;4938577;29;20032;-73
2023/04/12 00:40:20;;;;;;;7.55;2.63;;;;;;;1.51;100.00;100585.78;4937813;29;20028;-72
2023/04/12 00:42:46;;;;;;;8.02;2.70;;;;;;;1.48;100.00;100593.00;4939382;29;20048;-72
2023/04/12 00:45:13;;;;;;;13.07;3.28;;;;;;;1.48;100.00;100590.34;4935320;29;20028;-73
2023/04/12 00:47:41;;;;;;;8.00;2.92;;;;;;;1.42;100.00;100590.78;4939309;29;20044;-72
2023/04/12 00:50:09;;;;;;;8.25;2.45;;;;;;;1.40;100.00;100594.47;4939993;29;20039;-73
2023/04/12 00:52:36;;;;;;;8.10;2.63;;;;;;;1.34;100.00;100589.63;4939281;29;20060;-74
2023/04/12 00:55:06;;;;;;;6.65;2.33;;;;;;;1.29;100.00;100592.53;4922983;29;20035;-74
2023/04/12 00:57:37;;;;;;;10.52;2.30;;;;;;;1.22;100.00;100588.63;4939252;29;20103;-74
2023/04/12 01:00:11;;;;;;;10.40;2.40;;;;;;;1.12;100.00;100590.19;4937165;29;20055;-73
2023/04/12 01:02:41;;;;;;;7.53;2.47;;;;;;;0.97;100.00;100594.72;4939103;29;20036;-73
2023/04/12 01:12:32;;;;;;;10.50;2.67;;;;;;;0.92;100.00;100573.06;4937685;29;20088;-74
2023/04/12 01:15:08;;;;;;;7.30;2.40;;;;;;;0.72;100.00;100577.84;4936993;29;20108;-73
2023/04/12 01:17:42;;;;;;;10.80;2.70;;;;;;;0.83;100.00;100563.09;4938141;29;20101;-73
2023/04/12 01:20:21;;;;;;;8.40;2.45;;;;;;;0.88;100.00;100560.97;4938436;29;20039;-72
2023/04/12 01:22:58;;;;;;;9.18;2.40;;;;;;;0.85;100.00;100556.75;4914823;29;20063;-73
2023/04/12 01:25:51;;;;;;;9.88;3.35;;;;;;;0.88;100.00;100548.59;4899198;29;20104;-71
2023/04/12 01:28:22;;;;;;;7.35;3.97;;;;;;;0.82;100.00;100553.47;4897127;29;20474;-73
2023/04/12 01:30:50;;;;;;;;;;;;;;;0.90;100.00;100561.72;4898145;29;20056;-72
2023/04/12 01:33:17;;;;;;;12.00;3.30;;;;;;;0.96;100.00;100556.88;4899709;29;19923;-72
2023/04/12 01:35:45;;;;;;;6.65;3.13;;;;;;;0.90;100.00;100551.16;4898343;29;20052;-71
2023/04/12 01:38:12;;;;;;;6.10;3.17;;;;;;;0.86;100.00;100555.81;4900060;29;20092;-72
2023/04/12 01:40:41;;;;;;;6.43;3.25;;;;;;;0.92;100.00;100554.56;4898795;29;20112;-71
2023/04/12 01:43:09;;;;;;;7.85;3.38;;;;;;;0.90;100.00;100546.72;4897295;29;20064;-72
2023/04/12 01:45:36;;;;;;;8.40;3.30;;;;;;;0.89;100.00;100547.69;4896770;29;20060;-72
2023/04/12 01:48:09;;;;;;;10.40;3.00;;;;;;;0.83;100.00;100542.78;4880148;29;20056;-72
2023/04/12 01:50:43;;;;;;;8.95;3.15;;;;;;;0.76;100.00;100547.63;4894569;29;20056;-73
2023/04/12 01:53:17;;;;;;;10.88;3.65;;;;;;;0.80;100.00;100547.44;4897888;29;20391;-72
2023/04/12 01:55:47;;;;;;;5.15;2.90;;;;;;;0.81;100.00;100547.31;4895033;29;20052;-71
2023/04/12 01:58:20;;;;;;;9.82;3.35;;;;;;;0.76;100.00;100544.16;4897635;29;20048;-70
2023/04/12 02:00:48;;;;;;;11.45;3.45;;;;;;;0.70;100.00;100549.84;4896471;29;20058;-70
2023/04/12 02:03:17;;;;;;;6.90;3.20;;;;;;;0.67;100.00;100547.38;4916056;29;20051;-72
2023/04/12 02:05:44;;;;;;;5.57;2.60;;;;;;;0.61;100.00;100553.09;4917128;29;20056;-72
2023/04/12 02:08:11;;;;;;;6.97;2.88;;;;;;;0.51;100.00;100547.56;4919928;29;20078;-72
2023/04/12 02:10:39;;;;;;;7.07;2.75;;;;;;;0.58;100.00;100537.47;4916833;29;20048;-72
2023/04/12 02:13:05;;;;;;;7.53;2.97;;;;;;;0.62;100.00;100539.78;4917206;29;20063;-72
2023/04/12 02:15:33;;;;;;;7.57;2.85;;;;;;;0.57;100.00;100526.03;4915799;29;20130;-72
2023/04/12 02:18:00;;;;;;;5.80;2.85;;;;;;;0.43;100.00;100526.91;4915689;29;20076;-72
2023/04/12 02:20:27;;;;;;;7.00;3.00;;;;;;;0.40;100.00;100529.78;4915956;29;20048;-71
2023/04/12 02:22:53;;;;;;;9.85;3.00;;;;;;;0.52;100.00;100523.69;4917116;29;20058;-70
2023/04/12 02:25:20;;;;;;;7.30;2.97;;;;;;;0.56;100.00;100515.56;4915388;29;20059;-72
2023/04/12 02:27:47;;;;;;;9.40;2.80;;;;;;;0.45;100.00;100514.47;4900634;29;20073;-72
2023/04/12 02:30:14;;;;;;;12.35;2.88;;;;;;;0.49;100.00;100518.63;4916013;29;20509;-71
2023/04/12 02:32:44;;;;;;;16.90;4.00;;;;;;;0.43;100.00;100518.16;4902489;29;20056;-72
2023/04/12 02:35:11;;;;;;;7.03;2.78;;;;;;;0.45;100.00;100513.66;4918595;29;20099;-70
2023/04/12 02:37:38;;;;;;;8.05;2.78;;;;;;;0.45;100.00;100508.38;4918029;29;20071;-71
2023/04/12 02:40:06;;;;;;;8.48;2.78;;;;;;;0.43;100.00;100510.25;4918829;29;20058;-72
2023/04/12 02:42:32;;;;;;;9.98;3.42;;;;;;;0.39;100.00;100501.69;4917954;29;20050;-71
2023/04/12 02:44:58;;;;;;;12.15;2.92;;;;;;;0.24;100.00;100497.41;4918452;29;20385;-73
2023/04/12 02:47:27;;;;;;;10.30;2.72;;;;;;;0.38;100.00;100494.72;4916115;29;20138;-70
2023/04/12 02:49:55;;;;;;;10.02;2.67;;;;;;;0.24;100.00;100484.22;4918269;29;20051;-73
2023/04/12 02:52:21;;;;;;;11.70;3.30;;;;;;;0.23;100.00;100487.81;4917032;29;20489;-70
2023/04/12 02:54:49;;;;;;;5.20;2.40;;;;;;;0.32;100.00;100489.00;4902620;29;20055;-72
2023/04/12 02:57:15;;;;;;;10.25;3.58;;;;;;;0.38;100.00;100488.59;4918595;29;20055;-72
2023/04/12 02:59:42;;;;;;;6.18;2.58;;;;;;;0.22;100.00;100479.03;4923619;29;20123;-71
2023/04/12 03:02:08;;;;;;;9.02;2.83;;;;;;;0.31;100.00;100485.53;4923100;29;20107;-72
2023/04/12 03:04:38;;;;;;;9.70;3.10;;;;;;;0.33;100.00;100478.34;4904087;29;20111;-71
2023/04/12 03:07:05;;;;;;;6.88;3.08;;;;;;;0.22;100.00;100472.91;4920792;29;20067;-70
2023/04/12 03:09:33;;;;;;;15.10;3.30;;;;;;;0.32;100.00;100466.09;4906185;29;20048;-72
2023/04/12 03:12:01;;;;;;;8.75;2.95;;;;;;;0.34;100.00;100461.56;4914494;29;20040;-71
2023/04/12 03:14:27;;;;;;;5.45;2.92;;;;;;;0.19;100.00;100459.91;4916951;29;20048;-74
2023/04/12 03:16:55;;;;;;;7.95;4.03;;;;;;;0.19;100.00;100457.28;4917948;29;20384;-74
2023/04/12 03:19:21;;;;;;;8.00;3.15;;;;;;;-0.02;100.00;100463.03;4918822;29;20062;-73
2023/04/12 03:21:48;;;;;;;12.30;3.40;;;;;;;-0.02;100.00;100463.03;4901734;29;20058;-74
2023/04/12 03:24:14;;;;;;;11.25;3.25;;;;;;;-0.16;100.00;100454.28;4908134;29;20044;-74
2023/04/12 03:26:42;;;;;;;8.65;3.03;;;;;;;-0.10;100.00;100448.63;4917181;29;20059;-74
2023/04/12 03:29:09;;;;;;;9.18;3.20;;;;;;;-0.21;100.00;100449.31;4916784;29;20048;-74
2023/04/12 03:31:36;;;;;;;8.88;3.40;;;;;;;-0.51;100.00;100449.44;4917236;29;20071;-74
2023/04/12 03:34:03;;;;;;;9.88;3.78;;;;;;;-0.36;100.00;100442.34;4916952;29;20052;-73
2023/04/12 03:36:30;;;;;;;13.23;3.45;;;;;;;-0.15;100.00;100435.75;4916826;29;20052;-75
2023/04/12 03:38:57;;;;;;;11.00;2.88;;;;;;;-0.22;100.00;100423.91;4917152;29;20048;-73
2023/04/12 03:41:24;;;;;;;6.88;2.97;;;;;;;-0.16;100.00;100420.00;4909111;29;20062;-72
2023/04/12 03:43:51;;;;;;;8.05;3.20;;;;;;;-0.06;100.00;100415.84;4917488;29;20058;-73
2023/04/12 03:46:17;;;;;;;9.70;3.15;;;;;;;-0.02;100.00;100412.03;4925950;29;20054;-72
2023/04/12 03:48:44;;;;;;;10.80;3.65;;;;;;;-0.32;100.00;100409.63;4940166;29;20080;-72
2023/04/12 03:51:11;;;;;;;14.55;3.50;;;;;;;-0.31;100.00;100413.94;4940773;29;20052;-73
2023/04/12 03:53:38;;;;;;;9.70;3.40;;;;;;;-0.39;100.00;100416.22;4940886;29;20036;-73
2023/04/12 03:56:05;;;;;;;11.35;3.60;;;;;;;-0.53;100.00;100407.41;4940531;29;20104;-72
2023/04/12 03:58:32;;;;;;;9.43;3.40;;;;;;;-0.46;100.00;100403.44;4939949;29;20044;-73
2023/04/12 04:01:04;;;;;;;9.18;4.55;;;;;;;-0.56;100.00;100399.69;4921909;29;20032;-72
2023/04/12 04:03:33;;;;;;;9.48;3.75;;;;;;;-0.36;100.00;100398.44;4901237;29;20029;-73
2023/04/12 04:06:01;;;;;;;15.95;5.28;;;;;;;-0.27;100.00;100389.91;4902364;29;20037;-73
2023/04/12 04:08:28;;;;;;;16.98;4.50;;;;;;;-0.25;100.00;100392.47;4901757;29;20041;-72
2023/04/12 04:10:56;;;;;;;10.15;4.50;;;;;;;-0.26;100.00;100378.44;4901580;29;20053;-72
2023/04/12 04:13:22;;;;;;;18.20;4.78;;;;;;;-0.39;100.00;100388.06;4897770;29;20135;-74
2023/04/12 04:15:57;;;;;;;12.73;3.70;;;;;;;-0.45;100.00;100393.72;4898649;29;20051;-73
2023/04/12 04:18:24;;;;;;;8.35;4.13;;;;;;;-0.59;100.00;100402.50;4897109;29;20077;-73
2023/04/12 04:20:50;;;;;;;11.98;4.90;;;;;;;-0.46;100.00;100392.03;4897301;29;20056;-73
2023/04/12 04:23:17;;;;;;;10.50;4.25;;;;;;;-0.48;100.00;100400.03;4896548;29;20044;-72
2023/04/12 04:25:44;;;;;;;8.48;3.92;;;;;;;-0.50;100.00;100404.56;4897164;29;20454;-74
2023/04/12 04:28:10;;;;;;;12.95;4.45;;;;;;;-0.58;100.00;100401.56;4897085;29;20064;-73
2023/04/12 04:30:37;;;;;;;11.05;4.22;;;;;;;-0.59;100.00;100402.50;4897694;29;20052;-74
2023/04/12 04:33:05;;;;;;;7.32;4.07;;;;;;;-0.57;100.00;100398.00;4895754;29;20483;-74
2023/04/12 04:35:32;;;;;;;9.18;3.67;;;;;;;-0.59;100.00;100386.69;4896706;29;20091;-72
2023/04/12 04:38:01;;;;;;;11.27;4.20;;;;;;;-0.43;100.00;100390.06;4897409;29;20052;-73
2023/04/12 04:40:28;;;;;;;10.82;4.15;;;;;;;-0.52;100.00;100390.63;4898125;29;20045;-73
2023/04/12 04:42:54;;;;;;;9.32;3.88;;;;;;;-0.73;100.00;100389.34;4897654;29;20053;-73
2023/04/12 04:45:25;;;;;;;13.85;4.85;;;;;;;-0.73;100.00;100381.44;4887344;29;20048;-73
2023/04/12 04:47:52;;;;;;;9.43;3.35;;;;;;;-0.71;100.00;100385.69;4896048;29;20052;-73
2023/04/12 04:50:23;;;;;;;9.80;4.30;;;;;;;-0.77;100.00;100386.06;4897491;29;20135;-73
2023/04/12 04:52:50;;;;;;;15.90;5.15;;;;;;;-0.70;100.00;100384.75;4896245;29;20056;-74
2023/04/12 04:55:17;;;;;;;9.32;4.05;;;;;;;-0.56;100.00;100381.22;4895980;29;20044;-74
2023/04/12 04:57:43;;;;;;;10.98;4.18;;;;;;;-0.60;100.00;100376.28;4896073;29;20054;-74
2023/04/12 05:00:10;;;;;;;20.08;4.88;;;;;;;-0.62;100.00;100376.34;4897311;29;20055;-73
2023/04/12 05:02:38;;;;;;;14.35;5.13;;;;;;;-0.60;100.00;100371.84;4907837;29;20059;-73
2023/04/12 05:05:06;;;;;;;11.80;4.65;;;;;;;-0.51;100.00;100368.59;4915760;29;20068;-73
2023/04/12 05:07:33;;;;;;;14.45;4.13;;;;;;;-0.49;100.00;100365.88;4899812;29;20058;-73
2023/04/12 05:09:59;;;;;;;7.63;4.57;;;;;;;-0.55;100.00;100372.38;4915933;29;20047;-74
2023/04/12 05:12:25;;;;;;;11.38;4.65;;;;;;;-0.50;100.00;100366.84;4914443;29;20413;-75
2023/04/12 05:14:52;;;;;;;13.13;4.43;;;;;;;-0.47;100.00;100362.22;4914391;29;20052;-73
2023/04/12 05:17:36;;;;;;;12.02;4.82;;;;;;;-0.38;100.00;100360.75;4908239;29;20119;-73
2023/04/12 05:20:07;;;;;;;9.68;4.85;;;;;;;-0.26;100.00;100357.34;4920255;29;20055;-72
2023/04/12 05:22:34;;;;;;;10.40;4.95;;;;;;;-0.37;100.00;100366.88;4920296;29;20108;-72
2023/04/12 05:25:01;;;;;;;11.77;4.70;;;;;;;-0.15;100.00;100359.28;4921794;29;20078;-70
2023/04/12 05:27:28;;;;;;;10.88;4.95;;;;;;;0.01;100.00;100361.75;4921148;29;20123;-72
2023/04/12 05:29:56;;;;;;;14.13;4.75;;;;;;;0.09;100.00;100359.47;4909997;29;20115;-72
2023/04/12 05:32:26;;;;;;;11.98;4.53;;;;;;;0.14;100.00;100359.16;4920896;29;20528;-72
2023/04/12 05:34:52;;;;;;;9.15;4.97;;;;;;;0.21;100.00;100348.06;4919938;29;20108;-72
2023/04/12 05:37:19;;;;;;;16.80;4.82;;;;;;;0.19;100.00;100346.47;4920008;29;20135;-71
2023/04/12 05:39:45;;;;;;;10.20;4.15;;;;;;;-0.02;100.00;100349.63;4919503;29;20544;-71
2023/04/12 05:42:12;;;;;;;11.43;4.65;;;;;;;0.05;100.00;100343.00;4920031;29;20132;-71
2023/04/12 05:44:38;;;;;;;14.55;5.20;;;;;;;0.33;100.00;100338.50;4919593;29;20144;-71
2023/04/12 05:47:05;;;;;;;8.98;4.72;;;;;;;0.05;100.00;100344.75;4919039;29;20048;-73
2023/04/12 05:49:31;;;;;;;10.55;4.60;;;;;;;0.31;100.00;100334.28;4901336;29;20040;-73
2023/04/12 05:51:58;;;;;;;8.68;4.63;;;;;;;0.67;100.00;100333.53;4914596;29;20469;-73
2023/04/12 05:54:24;;;;;;;9.90;4.60;;;;;;;0.89;100.00;100328.47;4917544;29;20173;-73
2023/04/12 05:56:54;;;;;;;14.48;5.05;;;;;;;1.21;100.00;100320.91;4917727;29;20130;-73
2023/04/12 05:59:21;;;;;;;18.23;4.53;;;;;;;1.53;100.00;100314.25;4917602;29;20123;-73
2023/04/12 06:01:48;;;;;;;16.35;6.03;;;;;;;1.83;100.00;100311.16;4917757;29;20056;-73
2023/04/12 06:04:15;;;;;;;16.23;4.30;;;;;;;1.89;100.00;100306.25;4916004;29;20047;-72
2023/04/12 06:06:42;;;;;;;11.98;5.10;;;;;;;2.05;100.00;100303.31;4915577;29;20143;-73
2023/04/12 06:09:09;;;;;;;18.02;4.38;;;;;;;2.25;100.00;100299.16;4915545;29;20044;-73
2023/04/12 06:11:38;;;;;;;16.75;4.70;;;;;;;2.58;100.00;100285.16;4915445;29;20055;-73
2023/04/12 06:14:04;;;;;;;8.57;4.40;;;;;;;2.52;100.00;100287.41;4898622;29;20212;-73
2023/04/12 06:16:31;;;;;;;8.77;4.25;;;;;;;2.49;100.00;100282.34;4906351;29;20064;-74
2023/04/12 06:18:58;;;;;;;11.85;4.00;;;;;;;2.67;100.00;100273.81;4905581;29;20044;-73
2023/04/12 06:21:25;;;;;;;14.50;4.38;;;;;;;2.22;100.00;100275.56;4915252;29;20056;-73
2023/04/12 06:23:51;;;;;;;9.20;4.88;;;;;;;2.97;100.00;100272.38;4883482;29;20135;-73
2023/04/12 06:26:18;;;;;;;12.68;4.55;;;;;;;3.18;100.00;100269.81;4916231;29;20055;-74
2023/04/12 06:28:45;;;;;;;7.57;3.65;;;;;;;2.55;100.00;100271.31;4916225;29;20052;-73
2023/04/12 06:31:11;;;;;;;10.23;3.85;;;;;;;2.76;100.00;100263.47;4914747;29;20421;-73
2023/04/12 06:33:38;;;;;;;13.18;3.80;;;;;;;3.13;100.00;100266.66;4907432;29;20398;-74
2023/04/12 06:36:05;;;;;;;9.60;3.60;;;;;;;3.73;100.00;100260.00;4915022;29;20070;-73
2023/04/12 06:38:32;;;;;;;9.93;3.90;;;;;;;3.83;100.00;100250.28;4915269;29;20050;-74
2023/04/12 06:40:59;;;;;;;9.93;3.65;;;;;;;3.73;100.00;100249.38;4913916;29;20052;-74
2023/04/12 06:43:26;;;;;;;10.90;3.83;;;;;;;4.49;100.00;100249.19;4914447;29;20139;-74
2023/04/12 06:45:52;;;;;;;9.50;3.83;;;;;;;4.58;100.00;100254.53;4912372;29;20420;-73
2023/04/12 06:48:19;;;;;;;11.55;3.63;;;;;;;4.51;100.00;100247.22;4914215;29;20091;-74
2023/04/12 06:50:46;;;;;;;11.45;3.55;;;;;;;4.71;100.00;100241.03;4914704;29;20134;-74
2023/04/12 06:53:12;;;;;;;12.55;3.83;;;;;;;5.34;100.00;100243.44;4913570;29;20058;-73
2023/04/12 06:55:40;;;;;;;12.18;3.35;;;;;;;5.71;100.00;100237.44;4910632;29;20048;-74
2023/04/12 06:58:06;;;;;;;12.55;3.67;;;;;;;5.22;100.00;100239.22;4913517;29;20127;-74
2023/04/12 07:00:33;;;;;;;11.20;3.28;;;;;;;5.33;100.00;100235.59;4914935;29;20052;-74
2023/04/12 07:03:00;;;;;;;8.27;3.17;;;;;;;5.99;100.00;100238.38;4910507;29;20099;-74
2023/04/12 07:05:27;;;;;;;10.05;3.70;;;;;;;6.63;100.00;100226.16;4914589;29;20048;-74
2023/04/12 07:07:54;;;;;;;8.98;2.80;;;;;;;7.02;96.90;100224.16;4914578;29;20060;-73
2023/04/12 07:10:20;;;;;;;10.15;3.33;;;;;;;6.73;94.98;100218.97;4914219;29;20048;-74
2023/04/12 07:12:48;;;;;;;7.68;2.40;;;;;;;6.63;91.62;100221.72;4913312;29;20056;-74
2023/04/12 07:15:14;;;;;;;12.65;2.80;;;;;;;6.86;92.20;100229.31;4914172;29;20052;-73
2023/04/12 07:17:41;;;;;;;9.73;2.67;;;;;;;6.56;90.23;100214.41;4914184;29;20176;-74
2023/04/12 07:20:08;;;;;;;9.50;2.60;;;;;;;7.32;85.59;100216.81;4912656;29;20127;-74
2023/04/12 07:22:35;;;;;;;7.35;2.30;;;;;;;6.94;88.16;100208.06;4914245;29;20060;-74
2023/04/12 07:25:01;;;;;;;13.52;2.70;;;;;;;7.28;81.52;100215.44;4907476;29;20044;-73
2023/04/12 07:27:28;;;;;;;11.18;2.83;;;;;;;7.56;82.15;100213.53;4913696;29;20054;-74
2023/04/12 07:29:56;;;;;;;10.75;2.88;;;;;;;8.14;77.78;100208.50;4909470;29;20044;-74
2023/04/12 07:32:23;;;;;;;10.07;3.08;;;;;;;8.20;73.78;100207.06;4913052;29;20075;-73
2023/04/12 07:34:50;;;;;;;4.20;2.25;;;;;;;9.11;69.58;100195.75;4913327;29;20059;-74
2023/04/12 07:37:16;;;;;;;10.88;2.90;;;;;;;9.12;68.24;100185.88;4913183;29;20048;-74
2023/04/12 07:39:43;;;;;;;11.35;4.03;;;;;;;9.72;66.57;100189.16;4913764;29;20051;-76
2023/04/12 07:42:09;;;;;;;9.43;3.22;;;;;;;9.78;65.53;100185.78;4913846;29;20398;-74
2023/04/12 07:44:36;;;;;;;9.18;2.80;;;;;;;10.02;63.47;100178.75;4917271;29;20060;-75
2023/04/12 07:47:04;;;;;;;8.77;2.60;;;;;;;9.86;61.71;100174.25;4919199;29;20055;-74
2023/04/12 07:49:31;;;;;;;7.55;3.22;;;;;;;9.70;63.09;100171.59;4891798;29;20049;-74
2023/04/12 07:51:57;;;;;;;12.38;3.13;;;;;;;9.22;62.70;100163.31;4878986;29;20127;-73
2023/04/12 07:54:27;;;;;;;9.25;2.33;;;;;;;9.78;61.29;100163.53;4878673;29;20052;-74
2023/04/12 07:56:58;;;;;;;6.40;2.10;;;;;;;9.45;59.81;100160.88;4878102;29;20064;-74
2023/04/12 07:59:25;;;;;;;11.88;2.58;;;;;;;9.51;60.60;100162.06;4877233;29;20055;-74
2023/04/12 08:01:52;;;;;;;12.68;2.13;;;;;;;8.31;64.76;100153.34;4881584;29;20119;-74
2023/04/12 08:04:19;;;;;;;9.95;2.33;;;;;;;8.38;63.71;100149.03;4906692;29;20112;-77
2023/04/12 08:06:46;;;;;;;5.38;1.75;;;;;;;8.48;63.23;100146.22;4915977;29;20457;-74
2023/04/12 08:09:13;;;;;;;11.35;2.42;;;;;;;8.72;62.72;100148.16;4915229;29;20052;-73
2023/04/12 08:11:39;;;;;;;9.98;1.90;;;;;;;9.04;61.94;100141.22;4916030;29;20062;-74
2023/04/12 08:14:06;;;;;;;7.97;2.15;;;;;;;9.81;59.68;100131.06;4915261;29;20052;-74
2023/04/12 08:16:33;;;;;;;7.28;1.73;;;;;;;10.04;57.05;100123.97;4915773;29;20080;-74
2023/04/12 08:19:00;;;;;;;12.90;2.15;;;;;;;10.32;57.61;100128.09;4915141;29;20071;-74
2023/04/12 08:21:26;;;;;;;8.95;1.63;;;;;;;10.06;56.48;100131.84;4914606;29;20123;-74
2023/04/12 08:23:53;;;;;;;7.97;1.60;;;;;;;10.62;57.12;100123.81;4913416;29;20545;-74
2023/04/12 08:26:20;;;;;;;7.82;2.25;;;;;;;10.76;55.98;100119.56;4913942;29;20103;-74
2023/04/12 08:28:47;;;;;;;9.75;2.03;;;;;;;11.48;54.62;100114.66;4909388;29;20058;-74
2023/04/12 08:31:15;;;;;;;9.50;2.17;;;;;;;11.54;53.32;100105.06;4909121;29;20059;-74
2023/04/12 08:33:41;;;;;;;6.07;1.75;;;;;;;11.59;52.30;100103.50;4898712;29;20080;-75
2023/04/12 08:36:09;;;;;;;7.63;1.58;;;;;;;11.57;51.27;100099.31;4906217;29;20060;-75
2023/04/12 08:38:36;;;;;;;9.32;1.88;;;;;;;11.59;51.79;100089.25;4895418;29;20060;-75
2023/04/12 08:41:11;;;;;;;5.68;2.10;;;;;;;11.45;52.11;100094.38;4895463;29;20063;-75
2023/04/12 08:43:42;;;;;;;5.18;1.67;;;;;;;10.68;50.18;100093.59;4879123;29;20056;-74
2023/04/12 08:46:11;;;;;;;8.90;1.95;;;;;;;8.50;54.01;100089.91;4895415;29;20553;-75
2023/04/12 08:48:39;;;;;;;4.90;1.90;;;;;;;9.37;55.01;100085.06;4893815;29;20052;-75
2023/04/12 08:51:06;;;;;;;6.07;1.75;;;;;;;10.25;52.90;100077.00;4894537;29;20041;-75
2023/04/12 08:53:32;;;;;;;8.00;1.70;;;;;;;9.80;51.30;100083.84;4895110;29;20080;-75
2023/04/12 08:55:59;;;;;;;6.15;1.40;;;;;;;9.75;52.00;100087.03;4894927;29;20140;-75
2023/04/12 08:58:26;;;;;;;11.13;1.38;;;;;;;10.11;52.05;100075.06;4895630;29;20056;-75
2023/04/12 09:00:53;;;;;;;12.43;2.03;;;;;;;8.88;52.56;100088.50;4894608;29;20083;-75
2023/04/12 09:03:20;;;;;;;10.05;1.88;;;;;;;10.66;50.91;100074.16;4896702;29;20067;-75
2023/04/12 09:05:46;;;;;;;8.50;1.80;;;;;;;10.13;49.87;100073.03;4897261;29;20144;-75
2023/04/12 09:08:13;;;;;;;5.07;1.67;;;;;;;10.84;48.74;100065.84;4915148;29;20048;-75
2023/04/12 09:10:41;;;;;;;6.40;1.55;;;;;;;11.36;47.98;100059.72;4914836;29;20119;-75
2023/04/12 09:13:08;;;;;;;9.75;1.60;;;;;;;11.67;46.93;100059.63;4914000;29;20469;-76
2023/04/12 09:15:35;;;;;;;8.27;1.92;;;;;;;9.60;50.53;100056.59;4913535;29;20394;-75
2023/04/12 09:18:07;;;;;;;6.50;1.60;;;;;;;9.61;51.67;100066.28;4912713;29;20048;-74
2023/04/12 09:20:34;;;;;;;6.72;1.70;;;;;;;9.63;50.35;100061.63;4915515;29;20067;-77
2023/04/12 09:23:16;;;;;;;8.68;2.03;;;;;;;9.92;51.63;100039.59;4915293;29;20063;-75
2023/04/12 09:25:51;;;;;;;5.68;1.77;;;;;;;10.26;51.92;100033.94;4914455;29;20139;-74
2023/04/12 09:28:26;;;;;;;11.70;1.88;;;;;;;10.90;50.06;100031.06;4913054;29;20493;-74
2023/04/12 09:30:55;;;;;;;6.28;2.05;;;;;;;10.97;49.21;100032.03;4914228;29;20080;-75
2023/04/12 09:33:38;;;;;;;8.73;1.90;;;;;;;10.05;48.84;100006.91;4896412;29;20047;-74
2023/04/12 09:36:12;;;;;;;11.90;1.85;;;;;;;11.57;47.56;100010.66;4912654;29;20536;-75
2023/04/12 09:38:41;;;;;;;8.00;2.30;;;;;;;10.10;46.00;100009.91;4902340;29;20087;-76
2023/04/12 09:41:19;;;;;;;6.57;2.00;;;;;;;10.75;45.31;100000.66;4913357;29;20043;-76
2023/04/12 09:43:51;;;;;;;8.57;2.13;;;;;;;10.58;42.55;100002.63;4913295;29;20468;-75
2023/04/12 09:46:18;;;;;;;6.45;1.80;;;;;;;11.41;42.90;99982.13;4910409;29;20489;-75
2023/04/12 09:48:51;;;;;;;11.40;2.10;;;;;;;12.37;41.50;99977.59;4915073;29;20048;-75
2023/04/12 09:51:28;;;;;;;10.05;2.40;;;;;;;13.04;40.82;99973.72;4913950;29;20111;-75
2023/04/12 09:54:01;;;;;;;8.07;2.00;;;;;;;11.67;41.23;99979.03;4913406;29;20047;-75
2023/04/12 09:56:32;;;;;;;5.15;1.88;;;;;;;11.18;41.00;99971.44;4914752;29;20074;-76
2023/04/12 09:59:01;;;;;;;5.90;1.65;;;;;;;11.95;40.66;99962.22;4913624;29;20138;-75
2023/04/12 10:01:34;;;;;;;17.73;1.98;;;;;;;10.72;41.49;99958.06;4914352;29;20127;-76
2023/04/12 10:04:02;;;;;;;5.68;1.92;;;;;;;11.28;40.23;99945.19;4912096;29;20040;-76
2023/04/12 10:06:30;;;;;;;5.25;1.60;;;;;;;11.83;39.59;99943.91;4913903;29;20044;-76
2023/04/12 10:08:57;;;;;;;7.72;2.00;;;;;;;12.33;40.76;99936.81;4903532;29;20449;-75
2023/04/12 10:11:26;;;;;;;11.50;1.98;;;;;;;13.66;38.20;99923.56;4913749;29;20115;-75
2023/04/12 10:13:55;;;;;;;7.35;1.65;;;;;;;12.88;37.92;99915.63;4896446;29;20083;-76
2023/04/12 10:16:25;;;;;;;6.50;1.30;;;;;;;12.11;39.34;99919.00;4896400;29;20051;-76
2023/04/12 10:18:54;;;;;;;8.07;1.75;;;;;;;11.36;39.94;99912.84;4913008;29;20048;-76
2023/04/12 10:21:21;;;;;;;10.10;2.03;;;;;;;12.52;39.44;99912.97;4913064;29;20044;-76
2023/04/12 10:23:48;;;;;;;5.88;1.67;;;;;;;12.75;38.49;99904.75;4912736;29;20052;-76
2023/04/12 10:26:16;;;;;;;8.10;2.03;;;;;;;12.45;38.97;99898.63;4914119;29;20401;-76
2023/04/12 10:28:46;;;;;;;6.50;1.77;;;;;;;11.70;40.36;99892.66;4913959;29;20044;-76
2023/04/12 10:31:26;;;;;;;6.32;2.30;;;;;;;13.39;37.45;99884.88;4920035;29;20047;-75
2023/04/12 10:33:54;;;;;;;4.85;1.38;;;;;;;13.55;36.69;99879.16;4937038;29;20104;-76
2023/04/12 10:36:59;;;;;;;6.90;1.90;;;;;;;12.75;37.89;99867.88;4936647;29;20133;-75
2023/04/12 10:39:40;;;;;;;6.55;2.13;;;;;;;12.16;39.17;99874.38;4929034;29;20044;-75
2023/04/12 10:42:17;;;;;;;5.15;1.88;;;;;;;13.07;38.30;99862.94;4936592;29;20075;-75
2023/04/12 10:44:45;;;;;;;6.55;1.80;;;;;;;13.23;36.89;99859.94;4937811;29;20072;-75
2023/04/12 10:47:11;;;;;;;7.55;1.88;;;;;;;11.29;39.30;99855.53;4934223;29;20032;-74
2023/04/12 10:49:38;;;;;;;9.68;1.80;;;;;;;11.75;39.98;99857.16;4936327;29;20051;-74
2023/04/12 10:52:08;;;;;;;9.57;1.75;;;;;;;11.63;39.46;99841.50;4936626;29;20052;-75
2023/04/12 10:54:35;;;;;;;7.43;2.05;;;;;;;12.55;39.29;99834.56;4937187;29;20056;-76
2023/04/12 10:57:03;;;;;;;11.80;3.10;;;;;;;12.37;38.40;99849.31;4937301;29;20067;-76
2023/04/12 10:59:55;;;;;;;11.65;2.67;;;;;;;12.38;38.72;99826.81;4936847;29;20048;-74
2023/04/12 11:02:22;;;;;;;5.88;1.67;;;;;;;12.68;38.72;99823.09;4917192;29;20045;-75
2023/04/12 11:05:04;;;;;;;6.22;2.05;;;;;;;11.45;39.77;99828.50;4938037;29;20052;-74
2023/04/12 11:07:39;;;;;;;9.80;2.13;;;;;;;12.37;39.03;99822.44;4935424;29;20054;-76
2023/04/12 11:10:18;;;;;;;9.57;2.25;;;;;;;12.50;38.35;99804.75;4932293;29;20052;-74
2023/04/12 11:12:49;;;;;;;10.30;1.98;;;;;;;12.38;38.74;99802.59;4937301;29;20044;-74
2023/04/12 11:15:16;;;;;;;12.30;2.20;;;;;;;12.90;38.55;99800.47;4937140;29;20036;-75
2023/04/12 11:17:55;;;;;;;7.85;2.08;;;;;;;13.08;37.77;99786.53;4936702;29;20074;-74
2023/04/12 11:20:26;;;;;;;7.82;1.75;;;;;;;13.25;37.78;99787.00;4940045;29;20051;-74
2023/04/12 11:22:52;;;;;;;10.20;1.65;;;;;;;12.04;38.68;99795.25;4940044;29;20060;-75
2023/04/12 11:25:19;;;;;;;10.55;2.13;;;;;;;11.76;39.31;99787.13;4942154;29;20056;-74
2023/04/12 11:27:50;;;;;;;10.18;2.20;;;;;;;13.10;38.03;99784.44;4940611;29;20064;-73
2023/04/12 11:30:18;;;;;;;6.90;1.90;;;;;;;14.13;36.01;99779.81;4940347;29;20024;-73
2023/04/12 11:32:46;;;;;;;7.75;2.10;;;;;;;12.60;37.62;99779.16;4940266;29;20031;-75
2023/04/12 11:35:19;;;;;;;6.97;1.58;;;;;;;13.67;36.52;99761.66;4940032;29;20088;-74
2023/04/12 11:37:46;;;;;;;9.57;1.90;;;;;;;14.82;34.99;99764.22;4939707;29;20190;-74